createdAt,value
2023-03-30T00:00:24.281Z,8.97
2023-03-30T00:02:53.824Z,7.23
2023-03-30T00:05:23.753Z,6.83
2023-03-30T00:07:50.987Z,7.27
2023-03-30T00:10:19.176Z,9.33
2023-03-30T00:12:47.277Z,8.57
2023-03-30T00:15:16.544Z,6.73
2023-03-30T00:17:44.113Z,6.57
2023-03-30T00:20:12.463Z,7.40
2023-03-30T00:22:40.082Z,10.03
2023-03-30T00:25:08.690Z,6.60
2023-03-30T00:27:36.686Z,7.43
2023-03-30T00:30:08.114Z,7.87
2023-03-30T00:32:35.766Z,6.07
2023-03-30T00:35:02.897Z,7.23
2023-03-30T00:37:30.139Z,10.30
2023-03-30T00:39:57.255Z,8.33
2023-03-30T00:42:24.703Z,7.23
2023-03-30T00:45:07.417Z,6.50
2023-03-30T00:47:39.452Z,7.47
2023-03-30T00:50:08.035Z,9.00
2023-03-30T00:52:37.274Z,7.30
2023-03-30T00:55:07.529Z,7.27
2023-03-30T00:57:36.960Z,7.27
2023-03-30T01:00:07.781Z,9.13
2023-03-30T01:02:39.486Z,6.13
2023-03-30T01:05:07.004Z,7.00
2023-03-30T01:07:34.390Z,7.73
2023-03-30T01:10:02.086Z,8.20
2023-03-30T01:12:29.838Z,7.67
2023-03-30T01:14:57.227Z,9.33
2023-03-30T01:17:28.161Z,6.63
2023-03-30T01:19:56.781Z,9.63
2023-03-30T01:22:26.706Z,7.33
2023-03-30T01:25:15.079Z,7.50
2023-03-30T01:27:46.082Z,9.53
2023-03-30T01:30:14.189Z,9.27
2023-03-30T01:33:00.133Z,8.53
2023-03-30T01:35:36.612Z,7.43
2023-03-30T01:38:03.781Z,7.33
2023-03-30T01:40:33.945Z,8.10
2023-03-30T01:43:08.490Z,7.33
2023-03-30T01:45:46.924Z,8.10
2023-03-30T01:48:29.387Z,7.77
2023-03-30T01:50:58.253Z,8.13
2023-03-30T01:53:28.427Z,6.80
2023-03-30T01:56:04.799Z,7.67
2023-03-30T01:58:38.811Z,7.87
2023-03-30T02:01:07.311Z,9.73
2023-03-30T02:03:37.319Z,8.73
2023-03-30T02:06:09.734Z,6.77
2023-03-30T02:08:37.817Z,7.53
2023-03-30T02:11:05.505Z,7.80
2023-03-30T02:13:33.610Z,8.17
2023-03-30T02:16:04.077Z,7.30
2023-03-30T02:18:31.269Z,8.73
2023-03-30T02:20:58.893Z,8.63
2023-03-30T02:23:28.159Z,7.87
2023-03-30T02:25:56.721Z,9.63
2023-03-30T02:28:23.880Z,7.83
2023-03-30T02:30:51.471Z,9.07
2023-03-30T02:33:22.970Z,7.27
2023-03-30T02:35:53.207Z,7.70
2023-03-30T02:38:26.120Z,5.40
2023-03-30T02:40:56.185Z,6.97
2023-03-30T02:43:23.761Z,8.90
2023-03-30T02:45:51.085Z,9.47
2023-03-30T02:48:33.127Z,10.37
2023-03-30T02:51:06.557Z,9.73
2023-03-30T02:53:41.019Z,9.53
2023-03-30T02:56:15.930Z,10.77
2023-03-30T02:58:45.922Z,13.13
2023-03-30T03:01:18.871Z,8.63
2023-03-30T03:03:47.682Z,9.13
2023-03-30T03:06:15.709Z,7.63
2023-03-30T03:08:44.663Z,11.47
2023-03-30T03:11:12.211Z,9.57
2023-03-30T03:13:39.452Z,11.03
2023-03-30T03:16:08.027Z,10.27
2023-03-30T03:18:35.208Z,11.07
2023-03-30T03:21:02.439Z,13.57
2023-03-30T03:23:29.690Z,14.43
2023-03-30T03:25:56.960Z,14.93
2023-03-30T03:28:24.082Z,14.13
2023-03-30T03:30:51.244Z,15.00
2023-03-30T03:33:20.338Z,12.53
2023-03-30T03:35:47.590Z,14.03
2023-03-30T03:38:15.346Z,12.87
2023-03-30T03:40:42.517Z,15.00
2023-03-30T03:43:09.602Z,13.40
2023-03-30T03:45:36.687Z,15.23
2023-03-30T03:48:03.888Z,13.03
2023-03-30T03:50:31.651Z,15.07
2023-03-30T03:52:58.789Z,13.77
2023-03-30T03:55:25.930Z,13.53
2023-03-30T03:57:52.992Z,12.63
2023-03-30T04:00:20.580Z,13.67
2023-03-30T04:02:47.714Z,12.80
2023-03-30T04:05:15.445Z,11.73
2023-03-30T04:07:46.143Z,12.77
2023-03-30T04:10:13.942Z,13.77
2023-03-30T04:12:40.972Z,11.13
2023-03-30T04:15:08.395Z,12.10
2023-03-30T04:17:36.900Z,13.37
2023-03-30T04:20:06.075Z,13.90
2023-03-30T04:22:35.884Z,12.50
2023-03-30T04:25:07.049Z,11.57
2023-03-30T04:27:34.129Z,11.77
2023-03-30T04:30:02.132Z,13.67
2023-03-30T04:32:34.614Z,11.93
2023-03-30T04:35:03.356Z,12.93
2023-03-30T04:37:30.516Z,13.93
2023-03-30T04:39:58.650Z,14.30
2023-03-30T04:42:30.538Z,14.40
2023-03-30T04:44:58.007Z,14.67
2023-03-30T04:47:25.977Z,13.17
2023-03-30T04:49:53.063Z,13.27
2023-03-30T04:52:20.454Z,13.93
2023-03-30T04:54:47.616Z,12.10
2023-03-30T04:57:15.321Z,15.50
2023-03-30T04:59:42.979Z,12.73
2023-03-30T05:02:10.618Z,11.43
2023-03-30T05:04:38.170Z,12.03
2023-03-30T05:07:06.194Z,13.03
2023-03-30T05:09:33.375Z,12.90
2023-03-30T05:12:00.702Z,11.03
2023-03-30T05:14:27.797Z,15.40
2023-03-30T05:16:54.916Z,13.70
2023-03-30T05:19:22.077Z,12.57
2023-03-30T05:21:49.196Z,12.80
2023-03-30T05:24:16.610Z,12.13
2023-03-30T05:26:43.851Z,13.30
2023-03-30T05:29:11.095Z,14.50
2023-03-30T05:31:38.615Z,13.40
2023-03-30T05:34:06.654Z,13.10
2023-03-30T05:36:35.317Z,11.13
2023-03-30T05:39:05.020Z,14.43
2023-03-30T05:41:32.233Z,11.87
2023-03-30T05:43:59.450Z,15.37
2023-03-30T05:46:27.840Z,13.57
2023-03-30T05:48:55.057Z,14.27
2023-03-30T05:51:22.221Z,11.40
2023-03-30T05:53:49.297Z,13.77
2023-03-30T05:56:16.685Z,12.67
2023-03-30T05:58:43.742Z,15.87
2023-03-30T06:01:12.130Z,11.50
2023-03-30T06:03:39.801Z,11.63
2023-03-30T06:06:07.988Z,16.87
2023-03-30T06:08:35.459Z,14.17
2023-03-30T06:11:02.995Z,10.40
2023-03-30T06:13:30.442Z,11.53
2023-03-30T06:15:57.803Z,11.90
2023-03-30T06:18:25.276Z,12.20
2023-03-30T06:20:52.807Z,10.67
2023-03-30T06:23:19.870Z,16.67
2023-03-30T06:25:52.486Z,12.93
2023-03-30T06:28:20.546Z,11.50
2023-03-30T06:30:49.275Z,13.87
2023-03-30T06:33:17.561Z,13.07
2023-03-30T06:35:46.203Z,12.30
2023-03-30T06:38:13.639Z,13.27
2023-03-30T06:40:40.937Z,11.33
2023-03-30T06:43:08.342Z,13.80
2023-03-30T06:45:35.762Z,11.53
2023-03-30T06:48:03.151Z,12.17
2023-03-30T06:50:30.415Z,11.40
2023-03-30T06:52:57.806Z,14.00
2023-03-30T06:55:24.870Z,13.17
2023-03-30T06:57:51.959Z,12.47
2023-03-30T07:00:19.263Z,10.33
2023-03-30T07:02:46.495Z,14.87
2023-03-30T07:05:15.695Z,14.27
2023-03-30T07:07:43.043Z,10.57
2023-03-30T07:10:10.476Z,13.60
2023-03-30T07:12:43.837Z,13.67
2023-03-30T07:15:11.195Z,14.13
2023-03-30T07:17:39.348Z,11.20
2023-03-30T07:20:08.153Z,12.87
2023-03-30T07:22:35.863Z,12.13
2023-03-30T07:25:02.961Z,12.27
2023-03-30T07:27:30.045Z,13.60
2023-03-30T07:30:04.551Z,12.40
2023-03-30T07:32:37.830Z,12.23
2023-03-30T07:35:05.099Z,9.00
2023-03-30T07:37:32.190Z,13.80
2023-03-30T07:39:59.696Z,11.27
2023-03-30T07:42:26.862Z,9.03
2023-03-30T07:44:53.937Z,9.03
2023-03-30T07:47:21.002Z,8.90
2023-03-30T07:49:48.076Z,9.77
2023-03-30T07:52:15.624Z,5.90
2023-03-30T07:54:44.087Z,9.10
2023-03-30T07:57:12.084Z,9.27
2023-03-30T07:59:39.489Z,10.23
2023-03-30T08:02:07.534Z,8.40
2023-03-30T08:04:34.653Z,7.33
2023-03-30T08:07:04.048Z,9.77
2023-03-30T08:09:31.283Z,8.83
2023-03-30T08:11:58.568Z,8.57
2023-03-30T08:14:27.352Z,9.23
2023-03-30T08:16:54.786Z,6.87
2023-03-30T08:19:22.586Z,9.73
2023-03-30T08:21:49.673Z,9.03
2023-03-30T08:24:16.773Z,8.70
2023-03-30T08:26:43.835Z,9.43
2023-03-30T08:29:12.900Z,9.33
2023-03-30T08:31:40.060Z,8.03
2023-03-30T08:34:08.627Z,8.90
2023-03-30T08:36:35.796Z,9.77
2023-03-30T08:39:03.086Z,11.10
2023-03-30T08:41:30.156Z,9.07
2023-03-30T08:44:06.736Z,8.33
2023-03-30T08:46:34.299Z,10.70
2023-03-30T08:49:06.414Z,8.80
2023-03-30T08:51:34.263Z,10.03
2023-03-30T08:54:05.406Z,9.80
2023-03-30T08:56:35.502Z,10.10
2023-03-30T08:59:19.139Z,8.63
2023-03-30T09:02:00.761Z,11.30
2023-03-30T09:04:30.905Z,10.50
2023-03-30T09:07:00.160Z,11.43
2023-03-30T09:09:29.333Z,11.60
2023-03-30T09:12:07.999Z,12.87
2023-03-30T09:14:35.284Z,11.77
2023-03-30T09:17:07.481Z,11.50
2023-03-30T09:19:36.844Z,14.13
2023-03-30T09:22:06.461Z,13.37
2023-03-30T09:24:33.592Z,12.67
2023-03-30T09:27:03.717Z,15.17
2023-03-30T09:29:32.689Z,12.03
2023-03-30T09:32:07.747Z,12.03
2023-03-30T09:34:45.855Z,14.30
2023-03-30T09:37:18.571Z,17.33
2023-03-30T09:39:46.044Z,12.87
2023-03-30T09:42:25.482Z,13.97
2023-03-30T09:45:01.550Z,15.60
2023-03-30T09:47:30.430Z,15.37
2023-03-30T09:49:58.667Z,17.50
2023-03-30T09:52:27.324Z,18.07
2023-03-30T09:54:54.483Z,16.07
2023-03-30T09:57:26.026Z,17.07
2023-03-30T09:59:55.917Z,19.13
2023-03-30T10:02:25.055Z,17.33
2023-03-30T10:04:52.566Z,15.17
2023-03-30T10:07:32.273Z,16.27
2023-03-30T10:10:01.624Z,17.97
2023-03-30T10:12:30.366Z,14.43
2023-03-30T10:14:58.635Z,21.50
2023-03-30T10:17:26.641Z,16.83
2023-03-30T10:20:03.608Z,14.80
2023-03-30T10:22:48.791Z,17.80
2023-03-30T10:25:19.706Z,16.77
2023-03-30T10:27:47.411Z,13.97
2023-03-30T10:30:18.681Z,15.00
2023-03-30T10:32:49.321Z,16.17
2023-03-30T10:35:36.305Z,14.00
2023-03-30T10:38:04.543Z,13.07
2023-03-30T10:40:37.161Z,11.97
2023-03-30T10:43:05.874Z,14.23
2023-03-30T10:45:33.063Z,12.83
2023-03-30T10:51:12.932Z,8.93
2023-03-30T10:53:59.866Z,12.27
2023-03-30T10:56:36.021Z,10.40
2023-03-30T10:59:06.187Z,8.83
2023-03-30T11:01:39.320Z,11.63
2023-03-30T11:04:22.677Z,7.80
2023-03-30T11:06:53.158Z,9.23
2023-03-30T11:09:23.163Z,7.87
2023-03-30T11:11:52.239Z,8.37
2023-03-30T11:14:24.522Z,9.53
2023-03-30T11:17:04.092Z,9.03
2023-03-30T11:19:38.866Z,8.97
2023-03-30T11:22:15.966Z,7.90
2023-03-30T11:24:43.511Z,8.23
2023-03-30T11:27:18.710Z,7.10
2023-03-30T11:29:50.475Z,7.57
2023-03-30T11:32:27.242Z,8.80
2023-03-30T11:34:59.921Z,6.57
2023-03-30T11:37:30.648Z,7.73
2023-03-30T11:40:04.204Z,4.63
2023-03-30T11:42:32.274Z,3.50
2023-03-30T11:45:17.279Z,4.90
2023-03-30T11:47:49.630Z,6.13
2023-03-30T11:50:26.620Z,6.17
2023-03-30T11:53:05.584Z,7.67
2023-03-30T11:55:41.886Z,4.87
2023-03-30T11:58:11.963Z,3.97
2023-03-30T12:00:47.925Z,2.73
2023-03-30T12:03:33.856Z,2.23
2023-03-30T12:06:06.818Z,2.50
2023-03-30T12:08:40.004Z,3.60
2023-03-30T12:11:13.132Z,2.00
2023-03-30T12:13:50.856Z,2.27
2023-03-30T12:16:28.142Z,3.17
2023-03-30T12:18:55.886Z,3.17
2023-03-30T12:21:38.388Z,4.57
2023-03-30T12:24:05.544Z,2.60
2023-03-30T12:26:39.670Z,2.83
2023-03-30T12:31:55.741Z,2.00
2023-03-30T12:34:24.702Z,3.77
2023-03-30T12:37:00.113Z,3.17
2023-03-30T12:39:31.058Z,3.13
2023-03-30T12:42:26.107Z,2.40
2023-03-30T12:44:53.558Z,3.40
2023-03-30T12:47:23.686Z,3.20
2023-03-30T12:50:09.440Z,4.43
2023-03-30T12:52:36.458Z,6.07
2023-03-30T12:55:18.627Z,4.27
2023-03-30T12:57:54.623Z,4.63
2023-03-30T13:00:36.966Z,4.07
2023-03-30T13:03:22.762Z,4.20
2023-03-30T13:05:54.652Z,4.30
2023-03-30T13:08:38.321Z,4.03
2023-03-30T13:11:08.287Z,4.20
2023-03-30T13:13:55.829Z,5.07
2023-03-30T13:16:41.833Z,4.50
2023-03-30T13:19:37.223Z,4.83
2023-03-30T13:22:13.712Z,3.80
2023-03-30T13:24:44.513Z,4.23
2023-03-30T13:27:14.678Z,3.57
2023-03-30T13:29:42.653Z,4.63
2023-03-30T13:32:35.935Z,2.60
2023-03-30T13:35:08.974Z,3.70
2023-03-30T13:37:54.555Z,4.93
2023-03-30T13:40:37.957Z,4.20
2023-03-30T13:43:13.597Z,2.63
2023-03-30T13:46:09.253Z,2.73
2023-03-30T13:48:40.767Z,3.50
2023-03-30T13:51:12.843Z,3.80
2023-03-30T13:53:42.554Z,3.17
2023-03-30T13:56:10.437Z,2.93
2023-03-30T13:58:38.118Z,4.37
2023-03-30T14:01:09.851Z,3.33
2023-03-30T14:03:39.847Z,3.30
2023-03-30T14:06:21.107Z,3.83
2023-03-30T14:08:49.441Z,2.67
2023-03-30T14:11:24.483Z,3.27
2023-03-30T14:13:52.763Z,4.97
2023-03-30T14:16:26.607Z,3.17
2023-03-30T14:18:54.759Z,3.83
2023-03-30T14:21:26.063Z,3.63
2023-03-30T14:23:54.077Z,1.80
2023-03-30T14:26:26.644Z,2.33
2023-03-30T14:28:57.743Z,2.73
2023-03-30T14:31:28.478Z,3.20
2023-03-30T14:33:55.757Z,3.00
2023-03-30T14:36:23.410Z,3.50
2023-03-30T14:38:52.037Z,2.03
2023-03-30T14:41:22.903Z,3.60
2023-03-30T14:43:57.623Z,5.33
2023-03-30T14:46:25.951Z,3.83
2023-03-30T14:48:53.395Z,2.93
2023-03-30T14:51:28.087Z,5.30
2023-03-30T14:53:57.717Z,3.73
2023-03-30T14:56:25.907Z,3.30
2023-03-30T14:58:53.757Z,2.33
2023-03-30T15:01:24.008Z,2.20
2023-03-30T15:03:51.343Z,6.70
2023-03-30T15:06:22.109Z,3.67
2023-03-30T15:08:50.981Z,2.83
2023-03-30T15:11:23.296Z,1.90
2023-03-30T15:13:54.557Z,2.87
2023-03-30T15:16:23.902Z,3.40
2023-03-30T15:18:52.088Z,2.70
2023-03-30T15:21:20.159Z,4.00
2023-03-30T15:23:48.526Z,4.53
2023-03-30T15:26:15.890Z,2.50
2023-03-30T15:28:51.394Z,3.03
2023-03-30T15:31:19.236Z,2.50
2023-03-30T15:33:47.745Z,1.77
2023-03-30T15:36:18.931Z,2.77
2023-03-30T15:38:50.347Z,2.77
2023-03-30T15:41:18.638Z,2.17
2023-03-30T15:43:54.860Z,1.50
2023-03-30T15:46:22.011Z,3.57
2023-03-30T15:49:08.741Z,2.70
2023-03-30T15:51:37.956Z,0.70
2023-03-30T15:54:12.732Z,1.93
2023-03-30T15:56:39.805Z,0.93
2023-03-30T15:59:12.598Z,1.10
2023-03-30T16:01:52.034Z,1.00
2023-03-30T16:04:20.268Z,2.73
2023-03-30T16:06:47.763Z,1.07
2023-03-30T16:09:15.838Z,1.07
2023-03-30T16:11:42.970Z,0.77
2023-03-30T16:14:12.773Z,0.70
2023-03-30T16:16:39.962Z,3.40
2023-03-30T16:19:14.372Z,2.50
2023-03-30T16:21:42.575Z,1.53
2023-03-30T16:24:11.795Z,2.50
2023-03-30T16:26:38.857Z,1.53
2023-03-30T16:29:06.934Z,1.30
2023-03-30T16:31:34.800Z,1.50
2023-03-30T16:34:01.933Z,1.60
2023-03-30T16:36:29.893Z,1.63
2023-03-30T16:38:57.034Z,2.90
2023-03-30T16:41:24.427Z,1.83
2023-03-30T16:43:51.552Z,4.53
2023-03-30T16:46:20.000Z,1.80
2023-03-30T16:48:47.673Z,1.50
2023-03-30T16:51:15.409Z,1.10
2023-03-30T16:53:42.675Z,1.67
2023-03-30T16:56:15.641Z,1.60
2023-03-30T16:58:42.738Z,2.33
2023-03-30T17:01:13.067Z,1.90
2023-03-30T17:03:40.672Z,1.13
2023-03-30T17:06:08.291Z,4.97
2023-03-30T17:08:35.538Z,1.67
2023-03-30T17:11:04.902Z,0.97
2023-03-30T17:13:32.566Z,1.67
2023-03-30T17:16:02.681Z,1.83
2023-03-30T17:18:30.225Z,1.57
2023-03-30T17:20:58.161Z,2.47
2023-03-30T17:23:26.441Z,1.37
2023-03-30T17:25:54.133Z,1.67
2023-03-30T17:28:21.821Z,1.87
2023-03-30T17:30:49.157Z,0.73
2023-03-30T17:33:16.320Z,0.90
2023-03-30T17:35:45.424Z,0.63
2023-03-30T17:38:12.562Z,3.13
2023-03-30T17:40:39.697Z,1.00
2023-03-30T17:43:07.498Z,1.37
2023-03-30T17:45:35.482Z,1.30
2023-03-30T17:48:03.067Z,1.23
2023-03-30T17:50:32.309Z,1.30
2023-03-30T17:52:59.432Z,1.30
2023-03-30T17:55:27.879Z,2.23
2023-03-30T17:57:55.294Z,1.37
2023-03-30T18:00:32.581Z,1.77
2023-03-30T18:03:00.502Z,1.50
2023-03-30T18:05:29.305Z,1.30
2023-03-30T18:07:56.553Z,2.20
2023-03-30T18:10:28.762Z,1.30
2023-03-30T18:12:56.035Z,4.80
2023-03-30T18:15:25.453Z,1.97
2023-03-30T18:17:53.137Z,1.37
2023-03-30T18:20:34.346Z,1.23
2023-03-30T18:23:01.444Z,2.40
2023-03-30T18:25:32.429Z,1.80
2023-03-30T18:28:00.045Z,1.80
2023-03-30T18:30:34.795Z,1.33
2023-03-30T18:33:01.925Z,4.10
2023-03-30T18:35:30.623Z,1.60
2023-03-30T18:37:58.352Z,1.47
2023-03-30T18:40:33.272Z,1.73
2023-03-30T18:43:00.918Z,1.30
2023-03-30T18:45:29.498Z,3.73
2023-03-30T18:47:57.278Z,1.43
2023-03-30T18:50:24.433Z,1.97
2023-03-30T18:52:51.737Z,4.40
2023-03-30T18:55:18.903Z,1.70
2023-03-30T18:57:46.308Z,3.60
2023-03-30T19:00:21.879Z,1.83
2023-03-30T19:02:49.792Z,2.07
2023-03-30T19:05:17.834Z,3.07
2023-03-30T19:07:45.707Z,2.57
2023-03-30T19:10:14.219Z,4.27
2023-03-30T19:12:41.464Z,1.47
2023-03-30T19:15:09.114Z,2.10
2023-03-30T19:17:36.202Z,2.80
2023-03-30T19:20:06.346Z,1.67
2023-03-30T19:22:33.435Z,2.17
2023-03-30T19:25:00.525Z,1.27
2023-03-30T19:27:27.581Z,1.70
2023-03-30T19:29:54.713Z,1.63
2023-03-30T19:32:21.862Z,7.20
2023-03-30T19:34:48.968Z,5.63
2023-03-30T19:37:16.296Z,3.33
2023-03-30T19:39:45.499Z,2.70
2023-03-30T19:42:12.681Z,1.47
2023-03-30T19:44:39.962Z,2.07
2023-03-30T19:47:07.088Z,5.97
2023-03-30T19:49:34.142Z,3.03
2023-03-30T19:52:01.772Z,3.50
2023-03-30T19:54:28.825Z,1.83
2023-03-30T19:56:56.167Z,2.30
2023-03-30T19:59:23.302Z,3.53
2023-03-30T20:01:50.660Z,4.30
2023-03-30T20:04:17.794Z,4.20
2023-03-30T20:06:44.893Z,3.23
2023-03-30T20:09:12.028Z,2.77
2023-03-30T20:11:39.222Z,2.30
2023-03-30T20:14:07.366Z,1.10
2023-03-30T20:16:35.202Z,1.47
2023-03-30T20:19:12.985Z,1.57
2023-03-30T20:21:46.248Z,1.73
2023-03-30T20:24:13.339Z,1.20
2023-03-30T20:26:40.901Z,1.80
2023-03-30T20:29:08.224Z,0.80
2023-03-30T20:31:35.398Z,1.23
2023-03-30T20:34:02.488Z,1.20
2023-03-30T20:36:29.673Z,1.93
2023-03-30T20:39:01.085Z,0.90
2023-03-30T20:41:37.936Z,2.67
2023-03-30T20:44:11.072Z,4.27
2023-03-30T20:46:38.677Z,1.93
2023-03-30T20:49:08.058Z,1.67
2023-03-30T20:51:37.677Z,1.47
2023-03-30T20:54:06.580Z,3.13
2023-03-30T20:56:33.655Z,1.73
2023-03-30T20:59:00.800Z,3.03
2023-03-30T21:01:29.387Z,3.17
2023-03-30T21:03:57.711Z,1.73
2023-03-30T21:06:27.046Z,0.77
2023-03-30T21:08:55.729Z,1.23
2023-03-30T21:11:23.566Z,2.80
2023-03-30T21:13:51.340Z,2.17
2023-03-30T21:16:18.848Z,1.77
2023-03-30T21:18:46.072Z,1.33
2023-03-30T21:21:13.158Z,1.10
2023-03-30T21:23:41.428Z,1.33
2023-03-30T21:26:09.176Z,2.27
2023-03-30T21:28:37.046Z,1.80
2023-03-30T21:31:08.387Z,2.23
2023-03-30T21:33:36.062Z,1.17
2023-03-30T21:36:04.161Z,1.03
2023-03-30T21:38:31.600Z,1.40
2023-03-30T21:40:59.985Z,0.93
2023-03-30T21:43:29.135Z,2.00
2023-03-30T21:45:57.349Z,0.90
2023-03-30T21:48:25.146Z,1.80
2023-03-30T21:50:58.894Z,1.87
2023-03-30T21:53:26.130Z,1.13
2023-03-30T21:55:53.369Z,1.67
2023-03-30T21:58:20.507Z,1.13
2023-03-30T22:00:51.560Z,1.47
2023-03-30T22:03:25.434Z,2.40
2023-03-30T22:05:52.675Z,1.33
2023-03-30T22:08:19.726Z,1.80
2023-03-30T22:10:46.788Z,2.30
2023-03-30T22:13:13.996Z,1.27
2023-03-30T22:15:41.307Z,0.70
2023-03-30T22:18:08.409Z,2.80
2023-03-30T22:20:39.957Z,1.33
2023-03-30T22:23:07.038Z,1.73
2023-03-30T22:25:34.156Z,2.77
2023-03-30T22:28:02.579Z,0.90
2023-03-30T22:30:29.704Z,0.97
2023-03-30T22:32:56.894Z,2.07
2023-03-30T22:35:24.080Z,3.00
2023-03-30T22:37:51.381Z,2.03
2023-03-30T22:40:18.654Z,1.50
2023-03-30T22:42:45.905Z,0.97
2023-03-30T22:45:13.066Z,2.10
2023-03-30T22:47:40.327Z,1.70
2023-03-30T22:50:07.617Z,1.10
2023-03-30T22:52:34.752Z,2.00
2023-03-30T22:55:01.807Z,1.70
2023-03-30T22:57:28.991Z,1.90
2023-03-30T22:59:56.122Z,2.77
2023-03-30T23:02:24.397Z,1.60
2023-03-30T23:04:52.850Z,1.47
2023-03-30T23:07:19.966Z,1.70
2023-03-30T23:09:47.419Z,1.40
2023-03-30T23:12:14.840Z,1.03
2023-03-30T23:14:43.039Z,1.20
2023-03-30T23:17:10.148Z,1.50
2023-03-30T23:19:37.862Z,3.00
2023-03-30T23:22:04.973Z,1.33
2023-03-30T23:24:33.193Z,1.77
2023-03-30T23:27:00.361Z,2.17
2023-03-30T23:29:27.577Z,3.30
2023-03-30T23:31:54.701Z,1.23
2023-03-30T23:34:23.466Z,3.03
2023-03-30T23:36:50.933Z,2.60
2023-03-30T23:39:17.984Z,1.70
2023-03-30T23:41:45.486Z,2.63
2023-03-30T23:44:12.576Z,1.67
2023-03-30T23:46:39.769Z,0.83
2023-03-30T23:49:06.995Z,1.20
2023-03-30T23:51:34.213Z,1.93
2023-03-30T23:54:06.188Z,1.10
2023-03-30T23:56:34.172Z,1.00
2023-03-30T23:59:01.693Z,1.57
